createdAt,value
2022-12-26T00:01:36.035Z,6.04
2022-12-26T00:04:05.792Z,6.00
2022-12-26T00:06:53.765Z,5.95
2022-12-26T00:09:22.043Z,5.89
2022-12-26T00:11:50.207Z,5.92
2022-12-26T00:14:18.371Z,6.08
2022-12-26T00:16:47.836Z,6.13
2022-12-26T00:19:17.776Z,6.21
2022-12-26T00:21:45.954Z,6.32
2022-12-26T00:24:14.071Z,6.34
2022-12-26T00:26:42.154Z,6.29
2022-12-26T00:29:10.268Z,6.35
2022-12-26T00:31:38.603Z,6.37
2022-12-26T00:34:06.697Z,6.34
2022-12-26T00:36:36.128Z,6.31
2022-12-26T00:39:05.417Z,6.14
2022-12-26T00:41:33.765Z,6.12
2022-12-26T00:44:01.884Z,6.02
2022-12-26T00:46:30.166Z,6.00
2022-12-26T00:48:58.614Z,5.99
2022-12-26T00:51:26.785Z,6.03
2022-12-26T00:53:56.601Z,6.07
2022-12-26T00:56:24.688Z,6.18
2022-12-26T00:58:52.761Z,6.27
2022-12-26T01:01:23.057Z,6.27
2022-12-26T01:03:52.030Z,6.31
2022-12-26T01:06:20.307Z,6.31
2022-12-26T01:08:48.669Z,6.28
2022-12-26T01:11:39.373Z,6.26
2022-12-26T01:14:07.937Z,6.34
2022-12-26T01:16:36.172Z,6.38
2022-12-26T01:19:04.364Z,6.35
2022-12-26T01:21:32.594Z,6.37
2022-12-26T01:24:00.883Z,6.39
2022-12-26T01:26:30.368Z,6.41
2022-12-26T01:28:58.596Z,6.40
2022-12-26T01:31:26.990Z,6.37
2022-12-26T01:33:55.195Z,6.39
2022-12-26T01:36:23.434Z,6.41
2022-12-26T01:38:51.710Z,6.42
2022-12-26T01:41:20.997Z,6.43
2022-12-26T01:43:59.276Z,6.44
2022-12-26T01:46:32.640Z,6.42
2022-12-26T01:49:03.547Z,6.37
2022-12-26T01:51:35.272Z,6.33
2022-12-26T01:54:37.948Z,6.35
2022-12-26T01:56:54.702Z,6.33
2022-12-26T01:59:27.021Z,6.29
2022-12-26T02:01:56.190Z,6.09
2022-12-26T02:04:45.391Z,6.12
2022-12-26T02:07:13.590Z,6.11
2022-12-26T02:09:41.779Z,6.12
2022-12-26T02:12:33.762Z,6.12
2022-12-26T02:15:04.523Z,6.05
2022-12-26T02:17:32.661Z,6.06
2022-12-26T02:20:06.451Z,6.05
2022-12-26T02:23:22.146Z,6.01
2022-12-26T02:26:21.779Z,6.03
2022-12-26T02:29:34.940Z,6.03
2022-12-26T02:32:09.995Z,6.07
2022-12-26T02:34:46.505Z,6.06
2022-12-26T02:37:24.628Z,6.06
2022-12-26T02:40:04.789Z,6.05
2022-12-26T02:42:39.232Z,6.01
2022-12-26T02:45:32.806Z,5.96
2022-12-26T02:48:07.533Z,5.97
2022-12-26T02:51:01.166Z,5.93
2022-12-26T02:53:52.787Z,5.90
2022-12-26T02:56:43.349Z,5.92
2022-12-26T02:59:56.045Z,5.93
2022-12-26T03:02:44.514Z,5.91
2022-12-26T03:05:35.776Z,5.88
2022-12-26T03:08:22.161Z,5.84
2022-12-26T03:11:10.688Z,5.85
2022-12-26T03:13:40.124Z,5.78
2022-12-26T03:16:28.711Z,5.75
2022-12-26T03:19:00.708Z,5.72
2022-12-26T03:21:33.564Z,5.63
2022-12-26T03:24:01.675Z,5.67
2022-12-26T03:26:40.395Z,5.66
2022-12-26T03:29:27.641Z,5.62
2022-12-26T03:31:56.344Z,5.56
2022-12-26T03:34:24.679Z,5.36
2022-12-26T03:37:10.444Z,5.15
2022-12-26T03:39:57.412Z,5.16
2022-12-26T03:42:49.987Z,5.28
2022-12-26T03:45:57.345Z,5.37
2022-12-26T03:48:49.751Z,5.37
2022-12-26T03:51:41.011Z,5.41
2022-12-26T03:54:30.949Z,5.32
2022-12-26T03:57:19.567Z,5.34
2022-12-26T04:00:09.224Z,5.42
2022-12-26T04:03:03.512Z,5.42
2022-12-26T04:05:49.661Z,5.46
2022-12-26T04:08:38.720Z,5.49
2022-12-26T04:11:29.540Z,5.46
2022-12-26T04:14:19.934Z,5.50
2022-12-26T04:17:09.319Z,5.52
2022-12-26T04:20:01.296Z,5.52
2022-12-26T04:22:52.639Z,5.41
2022-12-26T04:25:49.830Z,5.44
2022-12-26T04:28:38.870Z,5.41
2022-12-26T04:31:28.188Z,5.41
2022-12-26T04:34:16.631Z,5.34
2022-12-26T04:37:05.566Z,5.36
2022-12-26T04:39:52.960Z,5.40
2022-12-26T04:42:38.797Z,5.41
2022-12-26T04:45:09.519Z,5.41
2022-12-26T04:47:37.657Z,5.44
2022-12-26T04:50:11.756Z,5.47
2022-12-26T04:52:58.880Z,5.44
2022-12-26T04:55:28.086Z,5.45
2022-12-26T04:57:56.468Z,5.44
2022-12-26T05:00:28.128Z,5.41
2022-12-26T05:03:18.737Z,5.36
2022-12-26T05:06:06.106Z,5.32
2022-12-26T05:08:53.224Z,5.25
2022-12-26T05:11:21.415Z,5.22
2022-12-26T05:13:49.562Z,5.16
2022-12-26T05:16:36.855Z,5.23
2022-12-26T05:19:37.250Z,5.21
2022-12-26T05:22:23.559Z,5.13
2022-12-26T05:25:09.623Z,5.16
2022-12-26T05:27:56.974Z,5.13
2022-12-26T05:30:25.854Z,5.17
2022-12-26T05:33:12.747Z,5.17
2022-12-26T05:35:41.162Z,5.21
2022-12-26T05:38:11.069Z,5.17
2022-12-26T05:40:39.281Z,5.15
2022-12-26T05:43:07.340Z,5.14
2022-12-26T05:45:35.365Z,5.06
2022-12-26T05:48:05.147Z,5.07
2022-12-26T05:50:33.469Z,5.05
2022-12-26T05:53:01.546Z,5.08
2022-12-26T05:55:29.717Z,5.03
2022-12-26T05:57:58.559Z,5.01
2022-12-26T06:00:27.048Z,5.01
2022-12-26T06:02:55.281Z,5.02
2022-12-26T06:05:24.706Z,5.03
2022-12-26T06:07:53.029Z,4.99
2022-12-26T06:10:21.234Z,5.01
2022-12-26T06:12:49.274Z,5.03
2022-12-26T06:15:18.011Z,5.04
2022-12-26T06:17:46.239Z,4.99
2022-12-26T06:20:14.339Z,4.98
2022-12-26T06:22:43.807Z,4.94
2022-12-26T06:25:11.946Z,4.91
2022-12-26T06:27:40.106Z,4.91
2022-12-26T06:30:12.826Z,4.88
2022-12-26T06:32:40.910Z,4.84
2022-12-26T06:35:09.916Z,4.79
2022-12-26T06:37:37.975Z,4.80
2022-12-26T06:40:08.978Z,4.84
2022-12-26T06:42:37.432Z,4.83
2022-12-26T06:45:06.197Z,4.81
2022-12-26T06:47:34.264Z,4.76
2022-12-26T06:50:02.285Z,4.78
2022-12-26T06:52:30.397Z,4.81
2022-12-26T06:54:58.871Z,4.80
2022-12-26T06:57:28.380Z,4.78
2022-12-26T06:59:56.688Z,4.77
2022-12-26T07:02:25.300Z,4.78
2022-12-26T07:04:53.438Z,4.80
2022-12-26T07:07:21.445Z,4.80
2022-12-26T07:09:49.482Z,4.80
2022-12-26T07:12:20.885Z,4.76
2022-12-26T07:14:50.814Z,4.77
2022-12-26T07:17:19.996Z,4.81
2022-12-26T07:19:48.070Z,4.83
2022-12-26T07:22:16.175Z,4.86
2022-12-26T07:24:44.439Z,4.87
2022-12-26T07:27:12.479Z,4.87
2022-12-26T07:29:40.851Z,4.88
2022-12-26T07:32:10.428Z,4.89
2022-12-26T07:34:38.631Z,4.91
2022-12-26T07:37:06.656Z,4.93
2022-12-26T07:39:35.660Z,4.96
2022-12-26T07:42:03.712Z,4.96
2022-12-26T07:44:34.420Z,4.99
2022-12-26T07:47:03.209Z,5.00
2022-12-26T07:49:32.800Z,5.03
2022-12-26T07:52:01.824Z,5.07
2022-12-26T07:54:30.098Z,5.08
2022-12-26T07:57:15.466Z,5.11
2022-12-26T07:59:46.377Z,5.13
2022-12-26T08:02:14.896Z,5.11
2022-12-26T08:04:44.821Z,5.06
2022-12-26T08:07:12.931Z,5.06
2022-12-26T08:09:43.037Z,5.09
2022-12-26T08:12:11.388Z,5.03
2022-12-26T08:14:39.749Z,5.01
2022-12-26T08:17:07.961Z,5.05
2022-12-26T08:19:36.181Z,5.14
2022-12-26T08:22:05.612Z,5.20
2022-12-26T08:24:33.756Z,5.17
2022-12-26T08:27:01.944Z,5.15
2022-12-26T08:29:30.098Z,5.18
2022-12-26T08:31:58.227Z,5.18
2022-12-26T08:34:26.325Z,5.31
2022-12-26T08:36:54.479Z,5.32
2022-12-26T08:39:23.980Z,5.33
2022-12-26T08:41:52.103Z,5.37
2022-12-26T08:44:28.563Z,5.42
2022-12-26T08:46:57.090Z,5.57
2022-12-26T08:49:25.197Z,5.56
2022-12-26T08:51:53.299Z,5.59
2022-12-26T08:54:24.283Z,5.66
2022-12-26T08:56:52.371Z,5.74
2022-12-26T08:59:20.654Z,5.74
2022-12-26T09:01:48.831Z,5.75
2022-12-26T09:04:17.071Z,5.81
2022-12-26T09:06:45.107Z,5.92
2022-12-26T09:09:13.705Z,5.99
2022-12-26T09:11:44.154Z,6.04
2022-12-26T09:14:13.265Z,6.12
2022-12-26T09:16:49.653Z,6.17
2022-12-26T09:19:19.938Z,6.25
2022-12-26T09:21:48.642Z,6.33
2022-12-26T09:24:18.575Z,6.47
2022-12-26T09:26:48.618Z,6.59
2022-12-26T09:29:16.654Z,6.68
2022-12-26T09:31:44.698Z,6.75
2022-12-26T09:34:12.763Z,6.83
2022-12-26T09:36:41.079Z,6.86
2022-12-26T09:39:09.992Z,6.94
2022-12-26T09:41:52.105Z,6.95
2022-12-26T09:44:23.789Z,7.02
2022-12-26T09:47:02.166Z,7.05
2022-12-26T09:49:33.380Z,7.16
2022-12-26T09:52:03.968Z,7.21
2022-12-26T09:54:35.018Z,7.27
2022-12-26T09:57:14.734Z,7.37
2022-12-26T09:59:47.596Z,7.46
2022-12-26T10:02:19.901Z,7.55
2022-12-26T10:04:48.450Z,7.65
2022-12-26T10:07:22.989Z,7.79
2022-12-26T10:10:04.733Z,7.87
2022-12-26T10:12:51.396Z,8.03
2022-12-26T10:15:37.497Z,8.13
2022-12-26T10:18:18.042Z,8.20
2022-12-26T10:20:56.462Z,8.28
2022-12-26T10:23:31.814Z,8.34
2022-12-26T10:26:05.766Z,8.45
2022-12-26T10:28:39.712Z,8.61
2022-12-26T10:31:11.259Z,8.70
2022-12-26T10:33:44.557Z,8.82
2022-12-26T10:36:18.961Z,8.97
2022-12-26T10:38:49.443Z,9.10
2022-12-26T10:41:23.165Z,9.36
2022-12-26T10:43:52.713Z,9.47
2022-12-26T10:46:34.729Z,9.70
2022-12-26T10:49:02.988Z,9.96
2022-12-26T10:51:31.507Z,10.03
2022-12-26T10:53:59.686Z,10.17
2022-12-26T10:56:29.036Z,10.21
2022-12-26T10:59:03.646Z,10.26
2022-12-26T11:01:36.617Z,10.34
2022-12-26T11:04:06.769Z,10.39
2022-12-26T11:06:38.461Z,10.32
2022-12-26T11:09:07.710Z,10.46
2022-12-26T11:11:49.340Z,10.55
2022-12-26T11:14:38.010Z,10.56
2022-12-26T11:17:08.696Z,10.73
2022-12-26T11:19:39.280Z,10.73
2022-12-26T11:22:23.603Z,10.74
2022-12-26T11:25:17.426Z,10.73
2022-12-26T11:27:47.667Z,10.77
2022-12-26T11:30:29.287Z,10.75
2022-12-26T11:33:14.578Z,10.75
2022-12-26T11:35:49.165Z,10.82
2022-12-26T11:38:39.006Z,10.82
2022-12-26T11:41:33.295Z,10.87
2022-12-26T11:44:06.965Z,10.88
2022-12-26T11:46:39.380Z,10.94
2022-12-26T11:49:08.687Z,10.89
2022-12-26T11:51:40.967Z,10.91
2022-12-26T11:54:24.835Z,10.91
2022-12-26T11:57:19.206Z,10.87
2022-12-26T11:59:48.116Z,10.94
2022-12-26T12:02:24.354Z,10.89
2022-12-26T12:04:55.186Z,10.98
2022-12-26T12:07:41.612Z,10.99
2022-12-26T12:10:42.914Z,10.95
2022-12-26T12:13:17.808Z,10.89
2022-12-26T12:15:54.020Z,10.81
2022-12-26T12:18:32.994Z,10.73
2022-12-26T12:21:07.432Z,10.63
2022-12-26T12:23:48.663Z,10.49
2022-12-26T12:26:19.480Z,10.28
2022-12-26T12:29:21.565Z,10.10
2022-12-26T12:32:00.573Z,10.03
2022-12-26T12:34:42.938Z,9.96
2022-12-26T12:37:18.928Z,9.85
2022-12-26T12:39:59.254Z,9.71
2022-12-26T12:42:38.096Z,9.69
2022-12-26T12:45:21.720Z,9.60
2022-12-26T12:47:59.769Z,9.64
2022-12-26T12:50:38.707Z,9.63
2022-12-26T12:53:18.221Z,9.60
2022-12-26T12:56:00.583Z,9.61
2022-12-26T12:58:33.969Z,9.61
2022-12-26T13:01:05.253Z,9.59
2022-12-26T13:03:36.585Z,9.60
2022-12-26T13:06:10.680Z,9.57
2022-12-26T13:08:42.849Z,9.59
2022-12-26T13:11:15.232Z,9.48
2022-12-26T13:13:49.983Z,9.40
2022-12-26T13:16:23.876Z,9.33
2022-12-26T13:18:55.703Z,9.32
2022-12-26T13:21:26.529Z,9.38
2022-12-26T13:24:17.211Z,9.33
2022-12-26T13:26:49.306Z,9.32
2022-12-26T13:29:22.002Z,9.26
2022-12-26T13:31:50.146Z,9.26
2022-12-26T13:34:20.391Z,9.23
2022-12-26T13:36:52.445Z,9.24
2022-12-26T13:39:47.563Z,9.20
2022-12-26T13:42:37.957Z,9.19
2022-12-26T13:45:40.925Z,9.20
2022-12-26T13:48:46.340Z,9.16
2022-12-26T13:51:47.860Z,9.17
2022-12-26T13:54:18.807Z,9.13
2022-12-26T13:56:58.071Z,9.09
2022-12-26T13:59:29.435Z,9.11
2022-12-26T14:02:07.402Z,9.06
2022-12-26T14:04:42.569Z,9.01
2022-12-26T14:07:23.027Z,8.93
2022-12-26T14:10:05.845Z,8.96
2022-12-26T14:12:46.653Z,8.86
2022-12-26T14:15:33.512Z,8.88
2022-12-26T14:18:12.143Z,8.87
2022-12-26T14:20:43.725Z,8.89
2022-12-26T14:23:23.496Z,8.90
2022-12-26T14:25:59.161Z,8.86
2022-12-26T14:28:32.021Z,8.80
2022-12-26T14:31:19.083Z,8.82
2022-12-26T14:33:58.231Z,8.85
2022-12-26T14:36:35.308Z,8.85
2022-12-26T14:39:13.602Z,8.86
2022-12-26T14:42:41.913Z,8.79
2022-12-26T14:45:36.708Z,8.74
2022-12-26T14:48:44.760Z,8.63
2022-12-26T14:51:38.723Z,8.69
2022-12-26T14:54:40.182Z,8.67
2022-12-26T14:57:46.909Z,8.69
2022-12-26T15:00:31.501Z,8.71
2022-12-26T15:03:45.841Z,8.70
2022-12-26T15:06:48.538Z,8.70
2022-12-26T15:09:58.921Z,8.60
2022-12-26T15:12:58.959Z,8.57
2022-12-26T15:15:39.490Z,8.62
2022-12-26T15:18:31.495Z,8.62
2022-12-26T15:21:22.652Z,8.69
2022-12-26T15:24:45.427Z,8.69
2022-12-26T15:27:44.015Z,8.74
2022-12-26T15:30:17.492Z,8.74
2022-12-26T15:32:53.597Z,8.75
2022-12-26T15:35:24.520Z,8.74
2022-12-26T15:38:22.513Z,8.71
2022-12-26T15:40:54.079Z,8.73
2022-12-26T15:43:53.774Z,8.69
2022-12-26T15:46:23.738Z,8.70
2022-12-26T15:49:20.460Z,8.69
2022-12-26T15:51:57.015Z,8.70
2022-12-26T15:55:02.791Z,8.68
2022-12-26T15:57:38.856Z,8.61
2022-12-26T16:00:13.822Z,8.64
2022-12-26T16:02:46.907Z,8.66
2022-12-26T16:05:38.966Z,8.68
2022-12-26T16:08:26.333Z,8.67
2022-12-26T16:11:10.738Z,8.59
2022-12-26T16:13:50.529Z,8.59
2022-12-26T16:16:29.487Z,8.60
2022-12-26T16:18:58.047Z,8.58
2022-12-26T16:21:46.825Z,8.58
2022-12-26T16:24:17.150Z,8.58
2022-12-26T16:26:47.323Z,8.56
2022-12-26T16:29:18.350Z,8.57
2022-12-26T16:31:46.894Z,8.55
2022-12-26T16:34:18.462Z,8.55
2022-12-26T16:36:50.278Z,8.54
2022-12-26T16:39:22.794Z,8.55
2022-12-26T16:42:05.838Z,8.52
2022-12-26T16:44:38.702Z,8.52
2022-12-26T16:47:09.208Z,8.50
2022-12-26T16:49:38.110Z,8.52
2022-12-26T16:52:08.151Z,8.53
2022-12-26T16:54:42.501Z,8.59
2022-12-26T16:57:14.983Z,8.62
2022-12-26T16:59:49.768Z,8.57
2022-12-26T17:02:22.325Z,8.52
2022-12-26T17:04:58.148Z,8.57
2022-12-26T17:07:28.297Z,8.52
2022-12-26T17:09:58.965Z,8.51
2022-12-26T17:12:30.249Z,8.50
2022-12-26T17:14:59.979Z,8.49
2022-12-26T17:17:34.409Z,8.47
2022-12-26T17:20:36.839Z,8.46
2022-12-26T17:23:33.323Z,8.45
2022-12-26T17:26:24.074Z,8.41
2022-12-26T17:28:52.883Z,8.36
2022-12-26T17:31:35.230Z,8.42
2022-12-26T17:34:28.569Z,8.37
2022-12-26T17:39:52.475Z,8.36
2022-12-26T17:42:20.694Z,8.39
2022-12-26T17:44:48.892Z,8.37
2022-12-26T17:47:22.823Z,8.38
2022-12-26T17:49:52.656Z,8.40
2022-12-26T17:52:23.938Z,8.36
2022-12-26T17:54:53.886Z,8.39
2022-12-26T17:57:24.854Z,8.39
2022-12-26T17:59:53.649Z,8.41
2022-12-26T18:02:22.235Z,8.41
2022-12-26T18:04:51.172Z,8.38
2022-12-26T18:07:23.254Z,8.42
2022-12-26T18:09:58.588Z,8.44
2022-12-26T18:12:26.731Z,8.41
2022-12-26T18:15:01.445Z,8.33
2022-12-26T18:17:33.076Z,8.38
2022-12-26T18:20:01.275Z,8.38
2022-12-26T18:22:29.357Z,8.35
2022-12-26T18:24:59.149Z,8.36
2022-12-26T18:27:30.697Z,8.37
2022-12-26T18:29:59.038Z,8.40
2022-12-26T18:32:28.679Z,8.39
2022-12-26T18:34:56.990Z,8.38
2022-12-26T18:37:27.294Z,8.36
2022-12-26T18:39:55.721Z,8.36
2022-12-26T18:42:27.421Z,8.34
2022-12-26T18:44:55.665Z,8.40
2022-12-26T18:47:24.139Z,8.40
2022-12-26T18:49:52.327Z,8.40
2022-12-26T18:52:20.467Z,8.43
2022-12-26T18:54:48.701Z,8.38
2022-12-26T18:57:19.284Z,8.39
2022-12-26T18:59:49.144Z,8.40
2022-12-26T19:02:18.498Z,8.42
2022-12-26T19:04:48.467Z,8.40
2022-12-26T19:07:20.213Z,8.38
2022-12-26T19:09:49.836Z,8.37
2022-12-26T19:12:18.465Z,8.39
2022-12-26T19:14:48.433Z,8.40
2022-12-26T19:17:16.863Z,8.39
2022-12-26T19:19:45.112Z,8.43
2022-12-26T19:22:13.239Z,8.45
2022-12-26T19:24:41.355Z,8.47
2022-12-26T19:27:09.500Z,8.49
2022-12-26T19:29:38.079Z,8.48
2022-12-26T19:32:07.719Z,8.50
2022-12-26T19:34:35.834Z,8.54
2022-12-26T19:37:04.149Z,8.52
2022-12-26T19:39:32.324Z,8.59
2022-12-26T19:42:00.508Z,8.59
2022-12-26T19:44:30.055Z,8.63
2022-12-26T19:47:11.557Z,8.64
2022-12-26T19:49:42.444Z,8.67
2022-12-26T19:52:10.969Z,8.68
2022-12-26T19:54:39.156Z,8.66
2022-12-26T19:57:07.347Z,8.68
2022-12-26T19:59:35.452Z,8.72
2022-12-26T20:02:03.914Z,8.69
2022-12-26T20:04:32.310Z,8.67
2022-12-26T20:07:02.210Z,8.67
2022-12-26T20:09:30.373Z,8.68
2022-12-26T20:11:58.832Z,8.72
2022-12-26T20:14:27.746Z,8.70
2022-12-26T20:17:06.144Z,8.73
2022-12-26T20:19:35.641Z,8.78
2022-12-26T20:22:05.591Z,8.81
2022-12-26T20:24:33.862Z,8.79
2022-12-26T20:27:02.441Z,8.82
2022-12-26T20:29:30.522Z,8.82
2022-12-26T20:31:59.466Z,8.78
2022-12-26T20:34:27.709Z,8.80
2022-12-26T20:37:22.129Z,8.80
2022-12-26T20:39:50.159Z,8.83
2022-12-26T20:42:19.521Z,8.82
2022-12-26T20:44:47.608Z,8.80
2022-12-26T20:47:16.097Z,8.74
2022-12-26T20:49:44.273Z,8.62
2022-12-26T20:52:12.443Z,8.50
2022-12-26T20:54:42.112Z,8.46
2022-12-26T20:57:10.273Z,8.40
2022-12-26T20:59:38.399Z,8.36
2022-12-26T21:02:07.076Z,8.26
2022-12-26T21:04:35.229Z,8.19
2022-12-26T21:07:03.401Z,8.11
2022-12-26T21:09:31.805Z,8.07
2022-12-26T21:12:01.501Z,8.00
2022-12-26T21:14:30.310Z,7.96
2022-12-26T21:16:59.691Z,7.94
2022-12-26T21:19:29.442Z,7.95
2022-12-26T21:21:57.594Z,7.95
2022-12-26T21:24:27.334Z,7.88
2022-12-26T21:26:55.973Z,7.88
2022-12-26T21:29:27.313Z,7.82
2022-12-26T21:31:56.276Z,7.81
2022-12-26T21:34:26.201Z,7.84
2022-12-26T21:37:12.370Z,7.79
2022-12-26T21:39:41.045Z,7.77
2022-12-26T21:42:10.199Z,7.80
2022-12-26T21:44:40.121Z,7.73
2022-12-26T21:47:08.878Z,7.66
2022-12-26T21:49:37.224Z,7.60
2022-12-26T21:52:06.078Z,7.53
2022-12-26T21:54:51.757Z,7.47
2022-12-26T21:57:20.101Z,7.43
2022-12-26T21:59:58.795Z,7.36
2022-12-26T22:02:47.303Z,7.35
2022-12-26T22:05:16.256Z,7.34
2022-12-26T22:07:44.503Z,7.33
2022-12-26T22:10:34.615Z,7.33
2022-12-26T22:13:03.126Z,7.32
2022-12-26T22:15:50.024Z,7.30
2022-12-26T22:18:18.329Z,7.29
2022-12-26T22:20:46.642Z,7.23
2022-12-26T22:23:15.255Z,7.24
2022-12-26T22:25:43.373Z,7.26
2022-12-26T22:28:11.659Z,7.26
2022-12-26T22:30:47.471Z,7.21
2022-12-26T22:33:15.747Z,7.17
2022-12-26T22:35:43.862Z,7.10
2022-12-26T22:38:11.974Z,7.09
2022-12-26T22:40:40.086Z,7.12
2022-12-26T22:43:08.174Z,7.11
2022-12-26T22:45:42.503Z,7.08
2022-12-26T22:48:10.577Z,7.07
2022-12-26T22:50:38.677Z,7.05
2022-12-26T22:53:06.783Z,7.04
2022-12-26T22:55:34.871Z,7.01
2022-12-26T22:58:03.018Z,7.05
2022-12-26T23:00:31.511Z,7.09
2022-12-26T23:03:01.080Z,7.09
2022-12-26T23:05:29.782Z,7.13
2022-12-26T23:07:58.393Z,7.10
2022-12-26T23:10:27.008Z,7.08
2022-12-26T23:12:56.037Z,7.05
2022-12-26T23:15:26.333Z,7.10
2022-12-26T23:18:17.927Z,7.10
2022-12-26T23:21:04.254Z,7.17
2022-12-26T23:23:32.861Z,7.14
2022-12-26T23:26:02.017Z,7.15
2022-12-26T23:28:47.703Z,7.12
2022-12-26T23:31:16.152Z,7.13
2022-12-26T23:33:45.577Z,7.12
2022-12-26T23:36:14.237Z,7.14
2022-12-26T23:38:42.297Z,7.12
2022-12-26T23:41:10.364Z,7.09
2022-12-26T23:43:38.466Z,7.13
2022-12-26T23:46:09.882Z,7.13
2022-12-26T23:48:38.186Z,7.09
2022-12-26T23:51:09.328Z,7.03
2022-12-26T23:53:37.503Z,7.01
2022-12-26T23:56:08.485Z,7.01
2022-12-26T23:58:37.516Z,7.01
